Time;durP1;ratioP1;P1;durP2;ratioP2;P2;SDS_P1;SDS_P2;PMS_P1;PMS_P2;Temp;Humidity;BMP_temperature;BMP_pressure;BME280_temperature;BME280_humidity;BME280_pressure;Samples;Min_cycle;Max_cycle;Signal;HPM_P1;HPM_P2
2023/01/27 00:00:12;;;;;;;;;;;4.60;99.90;;;;;;5078299;28;20366;-65
2023/01/27 00:02:39;;;;;;;;;;;4.60;99.90;;;;;;5077259;28;22098;-65
2023/01/27 00:05:05;;;;;;;;;;;4.60;99.90;;;;;;5075977;28;20033;-65
2023/01/27 00:07:30;;;;;;;;;;;4.60;99.90;;;;;;5075914;28;19924;-66
2023/01/27 00:09:56;;;;;;;;;;;4.50;99.90;;;;;;5076255;28;19939;-66
2023/01/27 00:15:07;;;;;;;;;;;4.50;99.90;;;;;;5079599;28;19943;-65
2023/01/27 00:17:33;;;;;;;;;;;4.60;99.90;;;;;;5088085;28;20309;-66
2023/01/27 00:19:59;;;;;;;;;;;4.60;99.90;;;;;;5089637;28;19908;-64
2023/01/27 00:25:09;;;;;;;;;;;4.60;99.90;;;;;;5077568;28;20353;-65
2023/01/27 00:27:35;;;;;;;;;;;4.60;99.90;;;;;;5077565;28;19950;-66
2023/01/27 00:30:03;;;;;;;;;;;4.50;99.90;;;;;;5082153;28;19916;-66
2023/01/27 00:35:15;;;;;;;;;;;4.60;99.90;;;;;;5090221;28;19915;-64
2023/01/27 00:37:41;;;;;;;;;;;4.60;99.90;;;;;;5087654;28;19916;-65
2023/01/27 00:40:07;;;;;;;;;;;4.60;99.90;;;;;;5088304;28;19912;-64
2023/01/27 00:42:33;;;;;;;;;;;4.60;99.90;;;;;;5091482;28;19939;-66
2023/01/27 00:47:42;;;;;;;;;;;4.60;99.90;;;;;;5080618;28;19976;-65
2023/01/27 00:50:08;;;;;;;;;;;4.60;99.90;;;;;;5070749;28;19912;-63
2023/01/27 00:52:34;;;;;;;;;;;4.70;99.90;;;;;;5070156;28;20011;-65
2023/01/27 00:55:00;;;;;;;;;;;4.70;99.90;;;;;;5070857;28;19994;-65
2023/01/27 00:57:25;;;;;;;;;;;4.70;99.90;;;;;;5090757;28;20131;-66
2023/01/27 00:59:51;;;;;;;;;;;4.70;99.90;;;;;;5081048;28;19908;-65
2023/01/27 01:02:16;;;;;;;;;;;4.70;99.90;;;;;;5075100;28;19912;-65
2023/01/27 01:04:42;;;;;;;;;;;4.70;99.90;;;;;;5075864;28;20046;-65
2023/01/27 01:07:07;;;;;;;;;;;4.70;99.90;;;;;;5074131;28;19917;-66
2023/01/27 01:09:33;;;;;;;;;;;4.70;99.90;;;;;;5073111;28;21773;-67
2023/01/27 01:11:59;;;;;;;;;;;4.70;99.90;;;;;;5076529;28;19912;-64
2023/01/27 01:14:24;;;;;;;;;;;4.70;99.90;;;;;;5076363;28;20318;-63
2023/01/27 01:16:50;;;;;;;;;;;4.70;99.90;;;;;;5078488;28;20369;-63
2023/01/27 01:19:15;;;;;;;;;;;4.70;99.90;;;;;;5081388;28;20009;-65
2023/01/27 01:21:41;;;;;;;;;;;4.70;99.90;;;;;;5087706;28;20563;-62
2023/01/27 01:24:06;;;;;;;;;;;4.70;99.90;;;;;;5087592;28;19912;-65
2023/01/27 01:26:32;;;;;;;;;;;4.70;99.90;;;;;;5086444;28;20358;-66
2023/01/27 01:28:58;;;;;;;;;;;4.70;99.90;;;;;;5070243;28;19957;-66
2023/01/27 01:31:23;;;;;;;;;;;4.70;99.90;;;;;;5087417;28;19944;-63
2023/01/27 01:33:49;;;;;;;;;;;4.70;99.90;;;;;;5087536;28;19937;-66
2023/01/27 01:36:16;;;;;;;;;;;4.80;99.90;;;;;;5074880;28;20494;-66
2023/01/27 01:38:41;;;;;;;;;;;4.80;99.90;;;;;;5074841;28;20527;-66
2023/01/27 01:41:09;;;;;;;;;;;4.80;99.90;;;;;;5082776;28;20043;-65
2023/01/27 01:43:35;;;;;;;;;;;4.80;99.90;;;;;;5086288;28;19912;-65
2023/01/27 01:46:01;;;;;;;;;;;4.80;99.90;;;;;;5086799;28;20446;-64
2023/01/27 01:48:32;;;;;;;;;;;4.80;99.90;;;;;;5089589;28;19912;-64
2023/01/27 01:51:04;;;;;;;;;;;4.80;99.90;;;;;;5089132;28;19966;-64
2023/01/27 01:53:32;;;;;;;;;;;4.80;99.90;;;;;;5086804;28;19935;-65
2023/01/27 01:56:02;;;;;;;;;;;4.90;99.90;;;;;;5098302;28;20010;-65
2023/01/27 01:58:28;;;;;;;;;;;4.90;99.90;;;;;;5070095;28;19909;-66
2023/01/27 02:00:55;;;;;;;;;;;4.90;99.90;;;;;;5087979;28;20322;-66
2023/01/27 02:03:21;;;;;;;;;;;4.90;99.90;;;;;;5082522;28;20301;-64
2023/01/27 02:05:47;;;;;;;;;;;4.80;99.90;;;;;;5087227;28;19927;-67
2023/01/27 02:08:18;;;;;;;;;;;4.80;99.90;;;;;;5083588;28;20279;-66
2023/01/27 02:10:44;;;;;;;;;;;4.80;99.90;;;;;;5083379;28;19916;-65
2023/01/27 02:13:10;;;;;;;;;;;4.80;99.90;;;;;;5088282;28;19963;-65
2023/01/27 02:15:36;;;;;;;;;;;4.80;99.90;;;;;;5086642;28;19916;-64
2023/01/27 02:18:01;;;;;;;;;;;4.70;99.90;;;;;;5082845;28;19957;-66
2023/01/27 02:20:33;;;;;;;;;;;4.70;99.90;;;;;;5086448;28;19997;-63
2023/01/27 02:23:14;;;;;;;;;;;4.70;99.90;;;;;;5083324;28;19909;-65
2023/01/27 02:25:51;;;;;;;;;;;4.70;99.90;;;;;;5085238;28;20007;-64
2023/01/27 02:28:17;;;;;;;;;;;4.60;99.90;;;;;;5087211;28;19955;-65
2023/01/27 02:30:42;;;;;;;;;;;4.60;99.90;;;;;;5088070;28;19948;-65
2023/01/27 02:33:11;;;;;;;;;;;4.60;99.90;;;;;;5087980;28;19912;-65
2023/01/27 02:35:50;;;;;;;;;;;4.60;99.90;;;;;;5096050;28;19923;-64
2023/01/27 02:38:16;;;;;;;;;;;4.60;99.90;;;;;;5079311;28;19920;-65
2023/01/27 02:40:42;;;;;;;;;;;4.60;99.90;;;;;;5097318;28;20371;-66
2023/01/27 02:43:08;;;;;;;;;;;4.60;99.90;;;;;;5102109;27;20250;-65
2023/01/27 02:45:33;;;;;;;;;;;4.60;99.90;;;;;;5091726;28;19912;-65
2023/01/27 02:47:59;;;;;;;;;;;4.70;99.90;;;;;;5095461;28;19941;-66
2023/01/27 02:50:25;;;;;;;;;;;4.70;99.90;;;;;;5091085;28;19912;-65
2023/01/27 02:52:50;;;;;;;;;;;4.60;99.90;;;;;;5091336;28;19908;-68
2023/01/27 02:55:16;;;;;;;;;;;4.60;99.90;;;;;;5091694;28;19912;-65
2023/01/27 02:57:42;;;;;;;;;;;4.60;99.90;;;;;;5092611;28;19919;-65
2023/01/27 03:00:08;;;;;;;;;;;4.60;99.90;;;;;;5090428;28;20574;-66
2023/01/27 03:02:34;;;;;;;;;;;4.60;99.90;;;;;;5086201;28;20617;-65
2023/01/27 03:04:59;;;;;;;;;;;4.60;99.90;;;;;;5085606;28;19912;-64
2023/01/27 03:07:25;;;;;;;;;;;4.60;99.90;;;;;;5089986;28;19979;-64
2023/01/27 03:09:51;;;;;;;;;;;4.60;99.90;;;;;;5082594;28;19920;-64
2023/01/27 03:12:20;;;;;;;;;;;4.60;99.90;;;;;;5088514;28;20333;-65
2023/01/27 03:20:21;;;;;;;;;;;4.60;99.90;;;;;;5089686;28;19930;-65
2023/01/27 03:22:51;;;;;;;;;;;4.60;99.90;;;;;;5094772;28;19913;-66
2023/01/27 03:25:31;;;;;;;;;;;4.60;99.90;;;;;;5103215;28;20441;-62
2023/01/27 03:28:12;;;;;;;;;;;4.60;99.90;;;;;;5087499;28;19912;-65
2023/01/27 03:30:54;;;;;;;;;;;4.60;99.90;;;;;;5098340;28;19923;-64
2023/01/27 03:33:33;;;;;;;;;;;4.70;99.90;;;;;;5112510;28;20582;-65
2023/01/27 03:46:59;;;;;;;;;;;4.60;99.90;;;;;;5089384;28;19951;-63
2023/01/27 03:49:25;;;;;;;;;;;4.60;99.90;;;;;;5084484;28;20397;-63
2023/01/27 03:51:50;;;;;;;;;;;4.70;99.90;;;;;;5086185;28;20405;-65
2023/01/27 03:54:16;;;;;;;;;;;4.70;99.90;;;;;;5085001;28;19916;-65
2023/01/27 03:56:41;;;;;;;;;;;4.70;99.90;;;;;;5074595;28;19956;-63
2023/01/27 03:59:07;;;;;;;;;;;4.70;99.90;;;;;;5076017;28;19924;-61
2023/01/27 04:01:33;;;;;;;;;;;4.70;99.90;;;;;;5078640;28;19967;-63
2023/01/27 04:06:53;;;;;;;;;;;4.70;99.90;;;;;;5077589;28;19927;-63
2023/01/27 04:09:24;;;;;;;;;;;4.70;99.90;;;;;;5075116;28;20309;-63
2023/01/27 04:11:55;;;;;;;;;;;4.60;99.90;;;;;;5077285;28;19916;-67
2023/01/27 04:14:22;;;;;;;;;;;4.60;99.90;;;;;;5077820;28;19912;-65
2023/01/27 04:16:47;;;;;;;;;;;4.60;99.90;;;;;;5078832;28;19972;-62
2023/01/27 04:19:15;;;;;;;;;;;4.50;99.90;;;;;;5079469;28;19920;-68
2023/01/27 04:21:42;;;;;;;;;;;4.60;99.90;;;;;;5075714;28;19920;-66
2023/01/27 04:24:16;;;;;;;;;;;4.50;99.90;;;;;;5078003;28;19912;-65
2023/01/27 04:26:42;;;;;;;;;;;4.50;99.90;;;;;;5077168;28;20406;-64
2023/01/27 04:29:08;;;;;;;;;;;4.50;99.90;;;;;;5083058;28;19935;-65
2023/01/27 04:31:34;;;;;;;;;;;4.50;99.90;;;;;;5089237;28;20293;-64
2023/01/27 04:34:00;;;;;;;;;;;4.50;99.90;;;;;;5091054;28;19999;-66
2023/01/27 04:36:25;;;;;;;;;;;4.60;99.90;;;;;;5089917;28;19908;-64
2023/01/27 04:38:51;;;;;;;;;;;4.60;99.90;;;;;;5086379;28;19986;-63
2023/01/27 04:41:16;;;;;;;;;;;4.60;99.90;;;;;;5090137;28;19912;-66
2023/01/27 04:43:42;;;;;;;;;;;4.50;99.90;;;;;;5076154;28;20446;-66
2023/01/27 04:46:08;;;;;;;;;;;4.50;99.90;;;;;;5070480;28;19931;-65
2023/01/27 04:48:33;;;;;;;;;;;4.50;99.90;;;;;;5086456;28;19952;-65
2023/01/27 04:50:59;;;;;;;;;;;4.50;99.90;;;;;;5091763;28;20396;-67
2023/01/27 04:53:25;;;;;;;;;;;4.40;99.90;;;;;;5090060;28;19923;-65
2023/01/27 04:55:51;;;;;;;;;;;4.50;99.90;;;;;;5087242;28;19912;-66
2023/01/27 04:58:17;;;;;;;;;;;4.40;99.90;;;;;;5086258;28;19942;-65
2023/01/27 05:00:43;;;;;;;;;;;4.50;99.90;;;;;;5085282;28;19998;-64
2023/01/27 05:03:10;;;;;;;;;;;4.40;99.90;;;;;;5080327;28;19931;-65
2023/01/27 05:05:36;;;;;;;;;;;4.40;99.90;;;;;;5081702;28;19916;-65
2023/01/27 05:08:06;;;;;;;;;;;4.40;99.90;;;;;;5076856;28;19959;-63
2023/01/27 05:10:32;;;;;;;;;;;4.40;99.90;;;;;;5074778;28;19920;-65
2023/01/27 05:12:58;;;;;;;;;;;4.40;99.90;;;;;;5075768;28;19919;-64
2023/01/27 05:15:23;;;;;;;;;;;4.30;99.90;;;;;;5075327;28;19916;-64
2023/01/27 05:17:49;;;;;;;;;;;4.40;99.90;;;;;;5074737;28;20005;-62
2023/01/27 05:20:15;;;;;;;;;;;4.30;99.90;;;;;;5077601;28;19912;-66
2023/01/27 05:22:41;;;;;;;;;;;4.30;99.90;;;;;;5078772;28;19916;-68
2023/01/27 05:25:07;;;;;;;;;;;4.20;99.90;;;;;;5075213;28;19916;-65
2023/01/27 05:27:33;;;;;;;;;;;4.20;99.90;;;;;;5070124;28;19928;-64
2023/01/27 05:29:58;;;;;;;;;;;4.20;99.90;;;;;;5077741;28;20258;-63
2023/01/27 05:32:24;;;;;;;;;;;4.20;99.90;;;;;;5076959;28;20357;-64
2023/01/27 05:34:49;;;;;;;;;;;4.10;99.90;;;;;;5075133;28;19913;-64
2023/01/27 05:37:15;;;;;;;;;;;4.10;99.90;;;;;;5076037;28;19927;-65
2023/01/27 05:39:40;;;;;;;;;;;4.10;99.90;;;;;;5074536;28;20297;-64
2023/01/27 05:42:06;;;;;;;;;;;4.10;99.90;;;;;;5075634;28;19955;-64
2023/01/27 05:44:32;;;;;;;;;;;4.10;99.90;;;;;;5075628;28;20274;-65
2023/01/27 05:46:57;;;;;;;;;;;4.10;99.90;;;;;;5087700;28;19912;-66
2023/01/27 05:49:23;;;;;;;;;;;4.10;99.90;;;;;;5090937;28;19908;-65
2023/01/27 05:51:48;;;;;;;;;;;4.10;99.90;;;;;;5076959;28;19962;-67
2023/01/27 05:54:14;;;;;;;;;;;4.10;99.90;;;;;;5070945;28;20015;-64
2023/01/27 05:56:40;;;;;;;;;;;4.10;99.90;;;;;;5070143;28;19952;-66
2023/01/27 05:59:05;;;;;;;;;;;4.10;99.90;;;;;;5068714;28;19909;-66
2023/01/27 06:01:32;;;;;;;;;;;4.10;99.90;;;;;;5070837;28;19915;-65
2023/01/27 06:03:57;;;;;;;;;;;4.10;99.90;;;;;;5076342;28;19924;-65
2023/01/27 06:06:24;;;;;;;;;;;4.00;99.90;;;;;;5091360;28;20053;-66
2023/01/27 06:08:50;;;;;;;;;;;4.00;99.90;;;;;;5089533;28;19912;-65
2023/01/27 06:11:16;;;;;;;;;;;3.90;99.90;;;;;;5088808;28;20396;-64
2023/01/27 06:13:42;;;;;;;;;;;4.00;99.90;;;;;;5090598;28;19919;-65
2023/01/27 06:16:09;;;;;;;;;;;4.00;99.90;;;;;;5091091;28;19912;-65
2023/01/27 06:18:35;;;;;;;;;;;3.90;99.90;;;;;;5078959;28;19969;-65
2023/01/27 06:21:01;;;;;;;;;;;3.90;99.90;;;;;;5080017;28;20006;-66
2023/01/27 06:23:27;;;;;;;;;;;3.90;99.90;;;;;;5077607;28;19952;-65
2023/01/27 06:25:53;;;;;;;;;;;3.90;99.90;;;;;;5078582;28;19920;-65
2023/01/27 06:28:19;;;;;;;;;;;3.90;99.90;;;;;;5082388;28;19927;-65
2023/01/27 06:30:45;;;;;;;;;;;3.90;99.90;;;;;;5093934;28;19991;-64
2023/01/27 06:33:11;;;;;;;;;;;3.80;99.90;;;;;;5092738;28;19976;-64
2023/01/27 06:35:37;;;;;;;;;;;3.90;99.90;;;;;;5093123;28;19962;-64
2023/01/27 06:38:04;;;;;;;;;;;3.80;99.90;;;;;;5094319;28;20402;-64
2023/01/27 06:40:30;;;;;;;;;;;3.90;99.90;;;;;;5094302;28;20027;-64
2023/01/27 06:42:55;;;;;;;;;;;3.90;99.90;;;;;;5089807;28;19961;-66
2023/01/27 06:45:21;;;;;;;;;;;3.90;99.90;;;;;;5093302;28;19955;-68
2023/01/27 06:47:57;;;;;;;;;;;3.90;99.90;;;;;;5084616;28;19987;-67
2023/01/27 06:50:23;;;;;;;;;;;3.90;99.90;;;;;;5092305;28;19919;-66
2023/01/27 06:52:50;;;;;;;;;;;3.90;99.90;;;;;;5085672;28;19909;-66
2023/01/27 06:55:15;;;;;;;;;;;4.00;99.90;;;;;;5072343;28;19954;-65
2023/01/27 06:57:42;;;;;;;;;;;4.00;99.90;;;;;;5077670;28;19963;-66
2023/01/27 07:00:08;;;;;;;;;;;4.00;99.90;;;;;;5080155;28;19919;-65
2023/01/27 07:02:33;;;;;;;;;;;3.90;99.90;;;;;;5080201;28;19912;-65
2023/01/27 07:04:59;;;;;;;;;;;3.90;99.90;;;;;;5079286;28;20795;-64
2023/01/27 07:07:24;;;;;;;;;;;3.90;99.90;;;;;;5077945;28;19947;-66
2023/01/27 07:09:50;;;;;;;;;;;3.90;99.90;;;;;;5078053;28;19919;-64
2023/01/27 07:12:16;;;;;;;;;;;3.90;99.90;;;;;;5078446;28;19993;-65
2023/01/27 07:14:41;;;;;;;;;;;4.00;99.90;;;;;;5078661;28;19951;-68
2023/01/27 07:17:07;;;;;;;;;;;4.00;99.90;;;;;;5081147;28;19912;-64
2023/01/27 07:19:33;;;;;;;;;;;4.00;99.90;;;;;;5083212;28;20007;-66
2023/01/27 07:21:59;;;;;;;;;;;4.00;99.90;;;;;;5088507;28;19912;-67
2023/01/27 07:24:25;;;;;;;;;;;4.00;99.90;;;;;;5100373;28;19959;-62
2023/01/27 07:26:51;;;;;;;;;;;4.00;99.90;;;;;;5094739;28;20327;-65
2023/01/27 07:29:17;;;;;;;;;;;4.10;99.90;;;;;;5094004;28;19912;-63
2023/01/27 07:31:44;;;;;;;;;;;4.10;99.90;;;;;;5094688;28;20293;-64
2023/01/27 07:34:11;;;;;;;;;;;4.10;99.90;;;;;;5094407;28;19912;-65
2023/01/27 07:36:38;;;;;;;;;;;4.20;99.90;;;;;;5093156;28;19919;-63
2023/01/27 07:39:05;;;;;;;;;;;4.20;99.90;;;;;;5089238;28;19908;-65
2023/01/27 07:41:31;;;;;;;;;;;4.30;99.90;;;;;;5072821;28;20385;-63
2023/01/27 07:43:58;;;;;;;;;;;4.30;99.90;;;;;;5080176;28;20599;-63
2023/01/27 07:46:28;;;;;;;;;;;4.40;99.90;;;;;;5091601;28;19918;-64
2023/01/27 07:48:53;;;;;;;;;;;4.40;99.90;;;;;;5092701;28;20422;-63
2023/01/27 07:51:19;;;;;;;;;;;4.40;99.90;;;;;;5067228;28;19921;-63
2023/01/27 07:53:45;;;;;;;;;;;4.50;99.90;;;;;;5072209;28;19912;-63
2023/01/27 07:56:10;;;;;;;;;;;4.50;99.90;;;;;;5103341;28;19915;-63
2023/01/27 07:58:40;;;;;;;;;;;4.50;99.90;;;;;;5083331;28;19912;-65
2023/01/27 08:01:10;;;;;;;;;;;4.50;99.90;;;;;;5073923;28;20334;-64
2023/01/27 08:03:36;;;;;;;;;;;4.50;99.90;;;;;;5083977;28;19915;-65
2023/01/27 08:06:08;;;;;;;;;;;4.50;99.90;;;;;;5083655;28;19919;-65
2023/01/27 08:08:34;;;;;;;;;;;4.60;99.90;;;;;;5090538;28;20007;-64
2023/01/27 08:11:04;;;;;;;;;;;4.60;99.90;;;;;;5082860;28;19999;-65
2023/01/27 08:13:30;;;;;;;;;;;4.60;99.90;;;;;;5081919;28;19944;-65
2023/01/27 08:15:59;;;;;;;;;;;4.60;99.90;;;;;;5084811;28;19912;-61
2023/01/27 08:18:25;;;;;;;;;;;4.60;99.90;;;;;;5087525;28;19999;-62
2023/01/27 08:20:51;;;;;;;;;;;4.70;99.90;;;;;;5084053;28;19916;-61
2023/01/27 08:23:17;;;;;;;;;;;4.60;99.90;;;;;;5084863;28;19912;-63
2023/01/27 08:25:53;;;;;;;;;;;4.70;99.90;;;;;;5086723;28;19912;-59
2023/01/27 08:28:19;;;;;;;;;;;4.70;99.90;;;;;;5077685;28;19921;-61
2023/01/27 08:30:45;;;;;;;;;;;4.60;99.90;;;;;;5085351;28;19916;-60
2023/01/27 08:33:11;;;;;;;;;;;4.60;99.90;;;;;;5091860;28;19916;-62
2023/01/27 08:35:38;;;;;;;;;;;4.60;99.90;;;;;;5087721;28;20262;-62
2023/01/27 08:38:04;;;;;;;;;;;4.50;99.90;;;;;;5090016;28;20383;-62
2023/01/27 08:40:30;;;;;;;;;;;4.50;99.90;;;;;;5089937;28;19908;-63
2023/01/27 08:42:55;;;;;;;;;;;4.60;99.90;;;;;;5082929;28;20325;-59
2023/01/27 08:45:21;;;;;;;;;;;4.60;99.90;;;;;;5090021;28;19927;-61
2023/01/27 08:47:47;;;;;;;;;;;4.60;99.90;;;;;;5090995;28;20361;-61
2023/01/27 08:50:13;;;;;;;;;;;4.60;99.90;;;;;;5090399;28;19912;-60
2023/01/27 08:52:38;;;;;;;;;;;4.70;99.90;;;;;;5074187;28;19909;-62
2023/01/27 08:55:04;;;;;;;;;;;4.70;99.90;;;;;;5069192;28;19985;-63
2023/01/27 08:57:31;;;;;;;;;;;4.80;99.90;;;;;;5069436;28;19908;-62
2023/01/27 08:59:57;;;;;;;;;;;4.80;99.90;;;;;;5074728;28;19916;-60
2023/01/27 09:02:23;;;;;;;;;;;4.80;99.90;;;;;;5081849;28;20497;-61
2023/01/27 09:04:49;;;;;;;;;;;4.90;99.90;;;;;;5089158;28;20418;-63
2023/01/27 09:07:14;;;;;;;;;;;5.00;99.90;;;;;;5088763;28;19916;-61
2023/01/27 09:09:40;;;;;;;;;;;5.00;99.90;;;;;;5087206;28;20348;-65
2023/01/27 09:12:06;;;;;;;;;;;5.00;99.90;;;;;;5085482;28;19921;-60
2023/01/27 09:14:32;;;;;;;;;;;5.00;99.90;;;;;;5090584;28;19916;-62
2023/01/27 09:16:58;;;;;;;;;;;5.00;99.90;;;;;;5087398;28;20010;-62
2023/01/27 09:19:24;;;;;;;;;;;5.00;99.90;;;;;;5071065;28;19912;-64
2023/01/27 09:21:50;;;;;;;;;;;5.00;99.90;;;;;;5082566;28;19912;-64
2023/01/27 09:24:18;;;;;;;;;;;5.00;99.90;;;;;;5088356;28;20400;-63
2023/01/27 09:26:44;;;;;;;;;;;4.90;99.90;;;;;;5082210;28;19973;-61
2023/01/27 09:29:10;;;;;;;;;;;4.90;99.90;;;;;;5089950;28;19908;-64
2023/01/27 09:31:36;;;;;;;;;;;5.00;99.90;;;;;;5079777;28;20022;-61
2023/01/27 09:34:03;;;;;;;;;;;5.00;99.90;;;;;;5080542;28;20380;-63
2023/01/27 09:36:29;;;;;;;;;;;5.10;99.90;;;;;;5083920;28;19918;-60
2023/01/27 09:39:03;;;;;;;;;;;5.40;99.90;;;;;;5077271;28;20007;-53
2023/01/27 09:41:32;;;;;;;;;;;5.70;99.90;;;;;;5083106;28;19923;-61
2023/01/27 09:44:16;;;;;;;;;;;5.60;99.90;;;;;;5075002;28;19952;-64
2023/01/27 09:46:42;;;;;;;;;;;5.30;99.90;;;;;;5078699;28;19985;-67
2023/01/27 09:49:26;;;;;;;;;;;5.00;99.90;;;;;;5087471;28;20366;-62
2023/01/27 09:51:52;;;;;;;;;;;5.00;99.90;;;;;;5095724;28;19916;-63
2023/01/27 09:54:38;;;;;;;;;;;5.20;99.90;;;;;;5094519;28;19914;-63
2023/01/27 09:57:13;;;;;;;;;;;5.20;99.90;;;;;;5084553;28;19966;-61
2023/01/27 09:59:59;;;;;;;;;;;5.30;99.90;;;;;;5082414;28;19912;-59
2023/01/27 10:02:53;;;;;;;;;;;5.40;99.90;;;;;;5044034;28;20298;-60
2023/01/27 10:05:52;;;;;;;;;;;5.40;99.90;;;;;;5094106;28;19970;-62
2023/01/27 10:08:29;;;;;;;;;;;5.50;99.90;;;;;;5083681;28;19916;-60
2023/01/27 10:11:00;;;;;;;;;;;5.60;99.90;;;;;;5087237;28;20023;-60
2023/01/27 10:13:26;;;;;;;;;;;5.50;99.90;;;;;;5090252;28;19920;-61
2023/01/27 10:15:58;;;;;;;;;;;5.50;99.90;;;;;;5094277;28;20459;-61
2023/01/27 10:18:36;;;;;;;;;;;5.60;99.90;;;;;;5094180;28;19965;-60
2023/01/27 10:21:10;;;;;;;;;;;5.60;99.90;;;;;;5093382;28;20293;-61
2023/01/27 10:23:36;;;;;;;;;;;5.70;99.90;;;;;;5093989;28;19919;-62
2023/01/27 10:26:02;;;;;;;;;;;5.80;99.90;;;;;;5093907;28;20340;-60
2023/01/27 10:28:29;;;;;;;;;;;5.80;99.90;;;;;;5086224;28;19913;-62
2023/01/27 10:31:02;;;;;;;;;;;5.80;99.90;;;;;;5073807;28;19913;-60
2023/01/27 10:33:51;;;;;;;;;;;5.80;99.90;;;;;;5079828;28;20015;-61
2023/01/27 10:36:43;;;;;;;;;;;5.70;99.90;;;;;;5093850;28;19912;-62
2023/01/27 10:39:21;;;;;;;;;;;5.60;99.90;;;;;;5085272;28;20293;-62
2023/01/27 10:41:46;;;;;;;;;;;5.80;99.90;;;;;;5094699;28;20262;-62
2023/01/27 10:44:15;;;;;;;;;;;5.70;99.90;;;;;;5095995;28;19915;-62
2023/01/27 10:46:41;;;;;;;;;;;5.80;99.90;;;;;;5094622;28;20411;-64
2023/01/27 10:49:11;;;;;;;;;;;5.70;99.90;;;;;;5093466;28;19948;-62
2023/01/27 10:51:40;;;;;;;;;;;5.70;99.90;;;;;;5102345;28;20301;-62
2023/01/27 10:54:09;;;;;;;;;;;5.80;99.90;;;;;;5114206;28;20393;-61
2023/01/27 10:56:47;;;;;;;;;;;5.80;99.90;;;;;;5088143;28;19919;-62
2023/01/27 10:59:41;;;;;;;;;;;5.90;99.90;;;;;;5094061;28;20002;-63
2023/01/27 11:02:23;;;;;;;;;;;5.90;99.90;;;;;;5089937;28;19999;-65
2023/01/27 11:04:53;;;;;;;;;;;6.00;99.90;;;;;;5077638;28;19936;-61
2023/01/27 11:07:20;;;;;;;;;;;6.20;99.90;;;;;;5088435;28;19935;-62
2023/01/27 11:09:52;;;;;;;;;;;6.10;99.90;;;;;;5093149;28;19912;-62
2023/01/27 11:12:24;;;;;;;;;;;6.10;99.90;;;;;;5093035;28;20289;-61
2023/01/27 11:14:51;;;;;;;;;;;6.20;99.90;;;;;;5093118;28;20539;-62
2023/01/27 11:17:23;;;;;;;;;;;6.20;99.90;;;;;;5087870;28;19945;-62
2023/01/27 11:19:55;;;;;;;;;;;6.20;99.90;;;;;;5082005;28;19919;-61
2023/01/27 11:22:34;;;;;;;;;;;6.20;99.90;;;;;;5089876;28;20338;-62
2023/01/27 11:25:18;;;;;;;;;;;6.10;99.90;;;;;;5091840;28;19908;-61
2023/01/27 11:27:57;;;;;;;;;;;6.10;99.90;;;;;;5091176;28;19914;-61
2023/01/27 11:30:32;;;;;;;;;;;6.30;99.90;;;;;;5092707;28;19965;-66
2023/01/27 11:33:18;;;;;;;;;;;6.50;99.90;;;;;;5086924;28;19908;-61
2023/01/27 11:35:44;;;;;;;;;;;6.70;99.90;;;;;;5078745;28;19919;-62
2023/01/27 11:38:13;;;;;;;;;;;6.70;99.90;;;;;;5092844;28;19967;-61
2023/01/27 11:40:40;;;;;;;;;;;6.50;99.90;;;;;;5085819;28;19908;-63
2023/01/27 11:43:06;;;;;;;;;;;6.50;99.90;;;;;;5093239;28;19912;-62
2023/01/27 11:45:35;;;;;;;;;;;6.70;99.90;;;;;;5091141;28;20366;-62
2023/01/27 11:48:01;;;;;;;;;;;6.70;99.90;;;;;;5092829;28;19964;-63
2023/01/27 11:50:32;;;;;;;;;;;6.70;99.90;;;;;;5091492;28;19952;-63
2023/01/27 11:53:10;;;;;;;;;;;6.70;99.90;;;;;;5092944;28;19908;-64
2023/01/27 11:55:45;;;;;;;;;;;6.60;99.90;;;;;;5091543;28;19938;-61
2023/01/27 11:58:10;;;;;;;;;;;6.60;99.90;;;;;;5082541;28;19972;-62
2023/01/27 12:00:42;;;;;;;;;;;6.40;99.90;;;;;;5084696;28;19920;-61
2023/01/27 12:03:15;;;;;;;;;;;6.60;99.90;;;;;;5081833;28;19942;-62
2023/01/27 12:05:47;;;;;;;;;;;6.60;99.90;;;;;;5077051;28;19913;-63
2023/01/27 12:08:45;;;;;;;;;;;6.80;99.90;;;;;;5092211;28;19923;-62
2023/01/27 12:11:19;;;;;;;;;;;6.60;99.90;;;;;;5086001;28;19961;-62
2023/01/27 12:13:49;;;;;;;;;;;6.50;99.90;;;;;;5089689;28;19919;-63
2023/01/27 12:16:14;;;;;;;;;;;6.40;99.90;;;;;;5093698;28;19972;-63
2023/01/27 12:18:47;;;;;;;;;;;6.40;99.90;;;;;;5091280;28;20347;-61
2023/01/27 12:21:12;;;;;;;;;;;6.40;99.90;;;;;;5086154;28;20024;-61
2023/01/27 12:23:45;;;;;;;;;;;6.50;99.90;;;;;;5071772;28;20015;-63
2023/01/27 12:26:11;;;;;;;;;;;6.50;99.90;;;;;;5077166;28;20492;-63
2023/01/27 12:28:40;;;;;;;;;;;6.60;99.90;;;;;;5090432;28;19927;-64
2023/01/27 12:31:08;;;;;;;;;;;6.60;99.90;;;;;;5086946;28;20009;-64
2023/01/27 12:33:35;;;;;;;;;;;6.50;99.90;;;;;;5085772;28;19912;-63
2023/01/27 12:36:05;;;;;;;;;;;6.30;99.90;;;;;;5090971;28;20028;-62
2023/01/27 12:38:34;;;;;;;;;;;6.30;99.90;;;;;;5091371;28;19947;-62
2023/01/27 12:41:04;;;;;;;;;;;6.40;99.90;;;;;;5091284;28;19912;-62
2023/01/27 12:43:30;;;;;;;;;;;6.30;99.90;;;;;;5082195;28;19920;-62
2023/01/27 12:46:03;;;;;;;;;;;6.30;99.90;;;;;;5090376;28;20003;-61
2023/01/27 12:48:30;;;;;;;;;;;6.30;99.90;;;;;;5088187;28;19947;-62
2023/01/27 12:51:04;;;;;;;;;;;6.40;99.90;;;;;;5087290;28;19968;-64
2023/01/27 12:53:30;;;;;;;;;;;6.40;99.90;;;;;;5088141;28;19931;-62
2023/01/27 12:56:03;;;;;;;;;;;6.50;99.90;;;;;;5079492;28;19935;-64
2023/01/27 12:58:37;;;;;;;;;;;6.50;99.90;;;;;;5075144;28;19966;-62
2023/01/27 13:01:21;;;;;;;;;;;6.50;99.90;;;;;;5078054;28;19912;-63
2023/01/27 13:03:52;;;;;;;;;;;6.50;99.90;;;;;;5085978;28;20594;-64
2023/01/27 13:06:19;;;;;;;;;;;6.50;99.90;;;;;;5087893;28;20357;-63
2023/01/27 13:08:48;;;;;;;;;;;6.70;99.90;;;;;;5080127;28;19978;-62
2023/01/27 13:11:14;;;;;;;;;;;6.60;99.90;;;;;;5085859;28;20246;-63
2023/01/27 13:13:47;;;;;;;;;;;6.70;99.90;;;;;;5083668;28;19936;-63
2023/01/27 13:16:26;;;;;;;;;;;6.60;99.90;;;;;;5091774;28;20356;-63
2023/01/27 13:19:00;;;;;;;;;;;6.50;99.90;;;;;;5091986;28;20004;-63
2023/01/27 13:21:35;;;;;;;;;;;6.40;99.90;;;;;;5091162;28;19913;-64
2023/01/27 13:24:02;;;;;;;;;;;6.40;99.90;;;;;;5090128;28;19969;-63
2023/01/27 13:26:30;;;;;;;;;;;6.40;99.90;;;;;;5089641;28;19916;-63
2023/01/27 13:28:58;;;;;;;;;;;6.60;99.90;;;;;;5102253;28;19911;-64
2023/01/27 13:31:24;;;;;;;;;;;6.60;99.90;;;;;;5090489;28;19961;-64
2023/01/27 13:33:58;;;;;;;;;;;6.60;99.90;;;;;;5090880;28;19977;-60
2023/01/27 13:36:33;;;;;;;;;;;6.60;99.90;;;;;;5091214;28;20329;-64
2023/01/27 13:39:01;;;;;;;;;;;6.60;99.90;;;;;;5090789;28;19915;-62
2023/01/27 13:41:35;;;;;;;;;;;6.50;99.90;;;;;;5090165;28;19919;-60
2023/01/27 13:44:10;;;;;;;;;;;6.50;99.90;;;;;;5091439;28;20377;-56
2023/01/27 13:46:37;;;;;;;;;;;6.40;99.90;;;;;;5070819;28;19908;-60
2023/01/27 13:49:09;;;;;;;;;;;6.40;99.90;;;;;;5071626;28;19909;-61
2023/01/27 13:51:35;;;;;;;;;;;6.30;99.90;;;;;;5070284;28;19917;-59
2023/01/27 13:54:02;;;;;;;;;;;6.30;99.90;;;;;;5084156;28;19912;-58
2023/01/27 13:56:30;;;;;;;;;;;6.20;99.90;;;;;;5091226;28;20002;-59
2023/01/27 13:59:01;;;;;;;;;;;6.40;99.90;;;;;;5088388;28;19924;-60
2023/01/27 14:01:33;;;;;;;;;;;6.30;99.90;;;;;;5079147;28;19986;-60
2023/01/27 14:04:22;;;;;;;;;;;6.20;99.90;;;;;;5090149;28;19919;-60
2023/01/27 14:07:06;;;;;;;;;;;6.20;99.90;;;;;;5074786;28;19912;-60
2023/01/27 14:09:31;;;;;;;;;;;6.20;99.90;;;;;;5083781;28;19912;-58
2023/01/27 14:12:03;;;;;;;;;;;6.10;99.90;;;;;;5082268;28;19912;-59
2023/01/27 14:14:41;;;;;;;;;;;6.10;99.90;;;;;;5085869;28;19962;-60
2023/01/27 14:17:12;;;;;;;;;;;6.10;99.90;;;;;;5075289;28;19916;-61
2023/01/27 14:19:58;;;;;;;;;;;6.10;99.90;;;;;;5079767;28;19912;-56
2023/01/27 14:22:33;;;;;;;;;;;6.10;99.90;;;;;;5083409;28;19913;-60
2023/01/27 14:25:07;;;;;;;;;;;6.30;99.90;;;;;;5089595;28;19966;-56
2023/01/27 14:27:41;;;;;;;;;;;6.30;99.90;;;;;;5082540;28;19924;-60
2023/01/27 14:30:13;;;;;;;;;;;6.40;99.90;;;;;;5081008;28;20293;-60
2023/01/27 14:32:42;;;;;;;;;;;6.50;99.90;;;;;;5078885;28;20393;-64
2023/01/27 14:35:19;;;;;;;;;;;6.60;99.90;;;;;;5085309;28;19912;-62
2023/01/27 14:38:00;;;;;;;;;;;6.40;99.90;;;;;;5087004;28;20431;-64
2023/01/27 14:40:41;;;;;;;;;;;6.30;99.90;;;;;;5093926;28;19935;-63
2023/01/27 14:43:12;;;;;;;;;;;6.20;99.90;;;;;;5074179;28;20512;-62
2023/01/27 14:45:57;;;;;;;;;;;6.10;99.90;;;;;;5091440;28;19912;-62
2023/01/27 14:48:31;;;;;;;;;;;6.10;99.90;;;;;;5088209;28;19908;-63
2023/01/27 14:51:04;;;;;;;;;;;6.10;99.90;;;;;;5089355;28;19916;-59
2023/01/27 14:53:30;;;;;;;;;;;6.10;99.90;;;;;;5095643;28;19927;-64
2023/01/27 14:56:04;;;;;;;;;;;6.00;99.90;;;;;;5090728;28;19912;-63
2023/01/27 14:59:06;;;;;;;;;;;6.00;99.90;;;;;;5088810;28;19919;-65
2023/01/27 15:01:38;;;;;;;;;;;6.20;99.90;;;;;;5015386;28;19921;-64
2023/01/27 15:04:04;;;;;;;;;;;6.20;99.90;;;;;;5089459;28;20297;-61
2023/01/27 15:06:30;;;;;;;;;;;6.30;99.90;;;;;;5089883;28;20267;-62
2023/01/27 15:09:10;;;;;;;;;;;6.30;99.90;;;;;;5093100;28;19919;-62
2023/01/27 15:11:42;;;;;;;;;;;6.20;99.90;;;;;;5081411;28;19915;-64